createdAt,value
2017-05-25T00:00:44.603Z,85.70
2017-05-25T00:03:13.431Z,85.20
2017-05-25T00:05:42.244Z,87.40
2017-05-25T00:08:11.076Z,87.00
2017-05-25T00:10:39.968Z,87.30
2017-05-25T00:13:08.787Z,87.30
2017-05-25T00:15:37.815Z,86.30
2017-05-25T00:18:06.616Z,86.30
2017-05-25T00:20:35.431Z,86.00
2017-05-25T00:23:04.271Z,85.70
2017-05-25T00:25:33.223Z,86.80
2017-05-25T00:28:02.011Z,87.20
2017-05-25T00:30:30.855Z,87.20
2017-05-25T00:32:59.817Z,86.80
2017-05-25T00:35:28.627Z,87.20
2017-05-25T00:37:57.444Z,88.10
2017-05-25T00:40:26.551Z,88.50
2017-05-25T00:42:55.394Z,86.80
2017-05-25T00:45:25.111Z,87.50
2017-05-25T00:47:54.043Z,87.60
2017-05-25T00:50:22.835Z,87.50
2017-05-25T00:52:51.659Z,87.30
2017-05-25T00:55:20.591Z,88.10
2017-05-25T00:57:49.499Z,88.30
2017-05-25T01:00:18.359Z,88.40
2017-05-25T01:02:47.563Z,88.50
2017-05-25T01:05:16.602Z,88.80
2017-05-25T01:07:45.427Z,89.10
2017-05-25T01:10:14.235Z,88.70
2017-05-25T01:12:43.031Z,88.50
2017-05-25T01:15:11.863Z,88.50
2017-05-25T01:17:40.738Z,88.50
2017-05-25T01:20:09.595Z,88.60
2017-05-25T01:22:38.447Z,88.20
2017-05-25T01:25:07.371Z,88.50
2017-05-25T01:27:36.267Z,88.70
2017-05-25T01:30:05.098Z,89.00
2017-05-25T01:32:34.003Z,89.00
2017-05-25T01:35:02.039Z,88.90
2017-05-25T01:37:30.835Z,89.00
2017-05-25T01:39:59.679Z,88.10
2017-05-25T01:42:28.478Z,88.10
2017-05-25T01:44:57.250Z,88.30
2017-05-25T01:47:26.078Z,88.40
2017-05-25T01:49:54.866Z,88.00
2017-05-25T01:52:23.670Z,87.70
2017-05-25T01:54:52.498Z,87.00
2017-05-25T01:57:21.278Z,87.30
2017-05-25T01:59:50.107Z,88.10
2017-05-25T02:02:20.201Z,89.40
2017-05-25T02:04:49.003Z,88.80
2017-05-25T02:07:18.046Z,89.70
2017-05-25T02:09:46.858Z,89.50
2017-05-25T02:12:15.627Z,89.50
2017-05-25T02:14:44.414Z,90.10
2017-05-25T02:17:13.206Z,90.20
2017-05-25T02:19:41.998Z,90.20
2017-05-25T02:22:10.770Z,90.10
2017-05-25T02:24:39.899Z,89.90
2017-05-25T02:27:08.674Z,89.90
2017-05-25T02:29:38.361Z,90.10
2017-05-25T02:32:07.169Z,90.40
2017-05-25T02:34:36.826Z,90.50
2017-05-25T02:37:05.602Z,90.70
2017-05-25T02:39:34.401Z,90.30
2017-05-25T02:42:03.211Z,90.30
2017-05-25T02:44:31.985Z,90.50
2017-05-25T02:47:00.876Z,90.30
2017-05-25T02:49:29.649Z,90.20
2017-05-25T02:51:58.425Z,90.30
2017-05-25T02:54:27.232Z,90.30
2017-05-25T02:56:56.022Z,90.10
2017-05-25T02:59:24.034Z,90.10
2017-05-25T03:01:52.841Z,90.20
2017-05-25T03:04:21.618Z,90.30
2017-05-25T03:06:50.401Z,90.40
2017-05-25T03:09:20.537Z,90.30
2017-05-25T03:11:50.242Z,90.20
2017-05-25T03:14:19.019Z,90.00
2017-05-25T03:16:47.809Z,90.10
2017-05-25T03:19:16.593Z,90.00
2017-05-25T03:21:45.365Z,89.70
2017-05-25T03:24:14.174Z,89.90
2017-05-25T03:26:42.954Z,90.00
2017-05-25T03:29:11.733Z,89.70
2017-05-25T03:31:40.530Z,89.30
2017-05-25T03:34:09.314Z,89.20
2017-05-25T03:36:38.129Z,89.00
2017-05-25T03:39:06.941Z,88.90
2017-05-25T03:41:35.725Z,88.60
2017-05-25T03:44:04.509Z,88.80
2017-05-25T03:46:33.305Z,88.80
2017-05-25T03:49:03.020Z,89.20
2017-05-25T03:51:31.804Z,88.90
2017-05-25T03:54:00.605Z,89.50
2017-05-25T03:56:29.384Z,89.20
2017-05-25T03:58:58.171Z,89.00
2017-05-25T04:01:26.941Z,89.50
2017-05-25T04:03:55.725Z,89.90
2017-05-25T04:06:24.500Z,89.80
2017-05-25T04:08:53.301Z,88.90
2017-05-25T04:11:22.157Z,88.80
2017-05-25T04:13:50.893Z,89.30
2017-05-25T04:16:19.701Z,89.70
2017-05-25T04:18:48.481Z,90.00
2017-05-25T04:21:18.161Z,90.20
2017-05-25T04:23:46.941Z,90.50
2017-05-25T04:26:15.720Z,90.20
2017-05-25T04:28:44.496Z,90.00
2017-05-25T04:31:13.313Z,89.90
2017-05-25T04:33:42.989Z,90.10
2017-05-25T04:36:11.772Z,90.60
2017-05-25T04:38:40.584Z,90.90
2017-05-25T04:41:09.360Z,91.30
2017-05-25T04:43:38.144Z,91.10
2017-05-25T04:46:06.937Z,91.20
2017-05-25T04:48:35.720Z,91.40
2017-05-25T04:51:04.500Z,91.30
2017-05-25T04:53:36.336Z,91.40
2017-05-25T04:56:05.121Z,92.00
2017-05-25T04:58:33.922Z,91.40
2017-05-25T05:01:02.728Z,91.90
2017-05-25T05:03:31.591Z,91.80
2017-05-25T05:06:00.315Z,91.50
2017-05-25T05:08:29.112Z,91.20
2017-05-25T05:10:57.892Z,91.30
2017-05-25T05:13:26.672Z,91.20
2017-05-25T05:15:55.479Z,91.70
2017-05-25T05:18:24.260Z,91.70
2017-05-25T05:20:53.048Z,92.30
2017-05-25T05:23:21.836Z,92.20
2017-05-25T05:25:51.572Z,91.90
2017-05-25T05:28:20.352Z,91.40
2017-05-25T05:30:49.156Z,91.30
2017-05-25T05:33:17.940Z,90.70
2017-05-25T05:35:46.736Z,90.80
2017-05-25T05:38:15.527Z,90.60
2017-05-25T05:40:44.316Z,90.20
2017-05-25T05:43:13.107Z,90.50
2017-05-25T05:45:41.911Z,90.00
2017-05-25T05:48:10.708Z,90.20
2017-05-25T05:50:39.496Z,89.60
2017-05-25T05:53:08.306Z,89.80
2017-05-25T05:55:37.091Z,88.40
2017-05-25T05:58:05.879Z,89.40
2017-05-25T06:00:36.687Z,89.50
2017-05-25T06:03:05.479Z,90.00
2017-05-25T06:05:34.271Z,90.10
2017-05-25T06:08:03.067Z,89.50
2017-05-25T06:10:31.855Z,89.30
2017-05-25T06:13:00.647Z,88.60
2017-05-25T06:15:29.431Z,89.80
2017-05-25T06:17:58.207Z,90.40
2017-05-25T06:20:26.991Z,89.90
2017-05-25T06:22:55.799Z,89.80
2017-05-25T06:25:24.571Z,89.80
2017-05-25T06:27:53.352Z,88.60
2017-05-25T06:30:22.139Z,89.00
2017-05-25T06:32:54.455Z,89.00
2017-05-25T06:35:25.179Z,89.50
2017-05-25T06:37:53.975Z,87.40
2017-05-25T06:40:22.755Z,86.70
2017-05-25T06:42:51.543Z,87.70
2017-05-25T06:45:20.311Z,85.60
2017-05-25T06:47:49.090Z,86.40
2017-05-25T06:50:18.247Z,84.00
2017-05-25T06:52:47.015Z,85.40
2017-05-25T06:55:15.787Z,84.40
2017-05-25T06:57:44.591Z,84.20
2017-05-25T07:00:13.359Z,85.30
2017-05-25T07:02:42.139Z,84.70
2017-05-25T07:05:10.919Z,83.40
2017-05-25T07:07:39.695Z,82.60
2017-05-25T07:10:08.475Z,83.40
2017-05-25T07:12:38.250Z,81.80
2017-05-25T07:15:07.023Z,83.70
2017-05-25T07:17:35.786Z,84.10
2017-05-25T07:20:04.578Z,83.00
2017-05-25T07:22:33.347Z,81.80
2017-05-25T07:25:02.126Z,83.50
2017-05-25T07:27:30.917Z,82.20
2017-05-25T07:29:59.678Z,80.80
2017-05-25T07:32:28.451Z,79.00
2017-05-25T07:34:57.234Z,81.60
2017-05-25T07:37:26.003Z,78.60
2017-05-25T07:39:54.782Z,77.90
2017-05-25T07:42:23.582Z,76.80
2017-05-25T07:44:52.351Z,76.70
2017-05-25T07:47:21.124Z,76.20
2017-05-25T07:49:49.906Z,76.40
2017-05-25T07:52:18.682Z,75.40
2017-05-25T07:54:47.450Z,75.80
2017-05-25T07:57:16.238Z,73.90
2017-05-25T07:59:45.011Z,70.80
2017-05-25T08:02:13.790Z,67.30
2017-05-25T08:04:42.585Z,70.00
2017-05-25T08:07:11.349Z,67.00
2017-05-25T08:09:40.127Z,65.20
2017-05-25T08:12:14.374Z,65.30
2017-05-25T08:14:43.155Z,67.50
2017-05-25T08:17:11.930Z,63.70
2017-05-25T08:19:41.656Z,64.30
2017-05-25T08:22:10.438Z,62.70
2017-05-25T08:24:39.221Z,62.20
2017-05-25T08:27:11.291Z,64.10
2017-05-25T08:29:40.065Z,61.30
2017-05-25T08:32:08.834Z,58.70
2017-05-25T08:34:38.585Z,57.60
2017-05-25T08:37:07.356Z,57.30
2017-05-25T08:39:36.126Z,56.20
2017-05-25T08:42:08.314Z,55.90
2017-05-25T08:44:37.079Z,54.50
2017-05-25T08:47:05.845Z,54.60
2017-05-25T08:49:34.619Z,55.40
2017-05-25T08:52:03.449Z,57.90
2017-05-25T08:54:32.254Z,59.00
2017-05-25T08:57:01.059Z,57.90
2017-05-25T08:59:29.893Z,57.90
2017-05-25T09:01:59.565Z,58.60
2017-05-25T09:04:28.449Z,58.00
2017-05-25T09:06:57.269Z,58.40
2017-05-25T09:09:26.082Z,57.40
2017-05-25T09:11:54.981Z,58.50
2017-05-25T09:14:23.781Z,59.20
2017-05-25T09:16:52.565Z,59.60
2017-05-25T09:19:22.381Z,57.80
2017-05-25T09:21:51.189Z,58.60
2017-05-25T09:24:20.033Z,57.70
2017-05-25T09:26:49.817Z,57.50
2017-05-25T09:29:19.731Z,56.20
2017-05-25T09:31:50.473Z,56.10
2017-05-25T09:34:19.277Z,54.50
2017-05-25T09:36:48.121Z,54.20
2017-05-25T09:39:16.925Z,54.20
2017-05-25T09:41:45.864Z,53.80
2017-05-25T09:44:14.656Z,54.00
2017-05-25T09:46:43.581Z,52.90
2017-05-25T09:49:12.381Z,53.70
2017-05-25T09:51:41.233Z,52.00
2017-05-25T09:54:10.066Z,52.80
2017-05-25T09:56:39.197Z,52.00
2017-05-25T09:59:07.997Z,51.20
2017-05-25T10:01:36.869Z,51.70
2017-05-25T10:04:05.688Z,51.80
2017-05-25T10:06:34.476Z,51.70
2017-05-25T10:09:03.336Z,51.90
2017-05-25T10:11:32.133Z,51.50
2017-05-25T10:14:01.928Z,51.10
2017-05-25T10:16:30.721Z,51.20
2017-05-25T10:18:59.572Z,50.80
2017-05-25T10:21:28.352Z,50.20
2017-05-25T10:23:58.224Z,50.80
2017-05-25T10:26:27.000Z,50.90
2017-05-25T10:29:02.108Z,49.30
2017-05-25T10:31:30.956Z,49.30
2017-05-25T10:33:59.815Z,50.10
2017-05-25T10:36:29.592Z,49.60
2017-05-25T10:38:59.340Z,44.50
2017-05-25T10:41:28.136Z,45.30
2017-05-25T10:43:57.964Z,46.10
2017-05-25T10:46:26.776Z,44.50
2017-05-25T10:48:56.584Z,45.70
2017-05-25T10:51:26.464Z,43.40
2017-05-25T10:53:55.320Z,44.70
2017-05-25T10:56:24.115Z,45.50
2017-05-25T10:58:52.952Z,45.70
2017-05-25T11:01:21.759Z,47.10
2017-05-25T11:03:52.579Z,45.70
2017-05-25T11:06:21.472Z,45.20
2017-05-25T11:08:51.221Z,46.00
2017-05-25T11:11:21.963Z,45.80
2017-05-25T11:13:50.764Z,45.60
2017-05-25T11:16:20.560Z,47.10
2017-05-25T11:18:51.382Z,46.30
2017-05-25T11:21:20.127Z,46.70
2017-05-25T11:23:49.884Z,46.50
2017-05-25T11:26:19.751Z,46.50
2017-05-25T11:28:51.031Z,46.60
2017-05-25T11:31:19.807Z,46.40
2017-05-25T11:33:49.667Z,44.10
2017-05-25T11:36:18.501Z,41.90
2017-05-25T11:38:51.232Z,42.90
2017-05-25T11:41:20.079Z,42.90
2017-05-25T11:43:51.731Z,43.90
2017-05-25T11:46:22.495Z,45.50
2017-05-25T11:48:51.598Z,45.80
2017-05-25T11:51:20.514Z,45.70
2017-05-25T11:53:49.328Z,46.00
2017-05-25T11:56:18.331Z,46.10
2017-05-25T11:58:47.151Z,46.20
2017-05-25T12:01:16.098Z,46.50
2017-05-25T12:03:44.942Z,45.50
2017-05-25T12:06:13.739Z,46.10
2017-05-25T12:08:42.598Z,46.80
2017-05-25T12:11:11.402Z,45.00
2017-05-25T12:13:44.115Z,44.90
2017-05-25T12:16:12.958Z,42.40
2017-05-25T12:18:42.848Z,42.90
2017-05-25T12:21:11.667Z,42.90
2017-05-25T12:23:41.523Z,44.80
2017-05-25T12:26:10.366Z,44.60
2017-05-25T12:28:39.263Z,44.90
2017-05-25T12:31:09.071Z,44.10
2017-05-25T12:33:37.923Z,44.30
2017-05-25T12:36:06.747Z,44.50
2017-05-25T12:38:35.594Z,44.40
2017-05-25T12:41:05.374Z,44.30
2017-05-25T12:43:34.139Z,44.30
2017-05-25T12:46:02.962Z,44.00
2017-05-25T13:01:20.110Z,43.50
2017-05-25T13:03:48.926Z,43.30
2017-05-25T13:06:18.698Z,43.00
2017-05-25T13:08:47.550Z,43.30
2017-05-25T13:11:16.352Z,43.20
2017-05-25T13:13:45.141Z,43.10
2017-05-25T13:16:14.006Z,43.30
2017-05-25T13:18:42.782Z,43.90
2017-05-25T13:21:11.554Z,43.60
2017-05-25T13:23:40.367Z,43.40
2017-05-25T13:26:09.186Z,43.60
2017-05-25T13:28:38.946Z,43.30
2017-05-25T13:31:07.725Z,42.30
2017-05-25T13:33:36.542Z,41.80
2017-05-25T13:36:05.453Z,42.00
2017-05-25T13:38:34.254Z,43.50
2017-05-25T13:41:03.930Z,42.60
2017-05-25T13:43:32.782Z,43.30
2017-05-25T13:46:01.618Z,43.00
2017-05-25T13:48:30.417Z,43.50
2017-05-25T13:50:59.213Z,43.00
2017-05-25T13:53:29.014Z,43.50
2017-05-25T13:55:57.921Z,43.40
2017-05-25T13:58:26.689Z,43.10
2017-05-25T14:00:55.469Z,43.60
2017-05-25T14:03:24.313Z,43.50
2017-05-25T14:05:53.098Z,43.20
2017-05-25T14:08:21.881Z,43.50
2017-05-25T14:10:50.681Z,43.00
2017-05-25T14:13:19.505Z,43.30
2017-05-25T14:15:48.321Z,43.20
2017-05-25T14:18:17.095Z,43.10
2017-05-25T14:20:46.849Z,42.90
2017-05-25T14:23:16.669Z,42.40
2017-05-25T14:25:45.473Z,41.30
2017-05-25T14:28:14.257Z,42.40
2017-05-25T14:30:43.029Z,43.50
2017-05-25T14:33:12.806Z,43.60
2017-05-25T14:35:41.620Z,42.30
2017-05-25T14:38:10.465Z,42.10
2017-05-25T14:40:40.224Z,41.80
2017-05-25T14:43:11.061Z,41.30
2017-05-25T14:45:39.925Z,41.20
2017-05-25T14:48:08.717Z,41.10
2017-05-25T14:50:37.573Z,41.50
2017-05-25T14:53:06.382Z,41.90
2017-05-25T14:55:35.196Z,41.80
2017-05-25T14:58:04.009Z,42.10
2017-05-25T15:00:32.800Z,42.40
2017-05-25T15:03:02.569Z,42.20
2017-05-25T15:05:31.408Z,42.40
2017-05-25T15:08:00.216Z,42.50
2017-05-25T15:10:29.141Z,42.40
2017-05-25T15:12:58.058Z,42.50
2017-05-25T15:15:27.732Z,41.70
2017-05-25T15:17:56.532Z,42.10
2017-05-25T15:20:25.329Z,42.10
2017-05-25T15:22:54.104Z,42.00
2017-05-25T15:25:22.917Z,41.40
2017-05-25T15:27:51.710Z,41.30
2017-05-25T15:30:20.560Z,41.20
2017-05-25T15:32:49.337Z,41.00
2017-05-25T15:35:18.200Z,41.20
2017-05-25T15:37:47.004Z,39.90
2017-05-25T15:40:15.955Z,40.60
2017-05-25T15:42:44.796Z,40.70
2017-05-25T15:45:13.616Z,39.80
2017-05-25T15:47:42.516Z,40.40
2017-05-25T15:50:11.404Z,39.80
2017-05-25T15:52:40.238Z,40.60
2017-05-25T15:55:09.832Z,39.60
2017-05-25T15:57:38.696Z,40.10
2017-05-25T16:00:07.520Z,41.00
2017-05-25T16:02:36.365Z,40.60
2017-05-25T16:05:05.296Z,39.90
2017-05-25T16:07:34.105Z,40.60
2017-05-25T16:10:02.863Z,40.80
2017-05-25T16:12:31.699Z,40.60
2017-05-25T16:15:00.519Z,41.00
2017-05-25T16:17:29.372Z,40.70
2017-05-25T16:19:58.241Z,41.10
2017-05-25T16:22:27.160Z,39.90
2017-05-25T16:24:55.976Z,39.90
2017-05-25T16:27:24.780Z,40.00
2017-05-25T16:29:53.583Z,39.80
2017-05-25T16:32:22.415Z,39.80
2017-05-25T16:34:51.188Z,39.40
2017-05-25T16:37:19.972Z,39.90
2017-05-25T16:39:48.824Z,40.50
2017-05-25T16:42:17.723Z,41.40
2017-05-25T16:44:46.507Z,41.20
2017-05-25T16:47:15.280Z,40.40
2017-05-25T16:49:44.095Z,40.30
2017-05-25T16:52:12.948Z,40.50
2017-05-25T16:54:41.720Z,40.60
2017-05-25T16:57:10.508Z,40.80
2017-05-25T16:59:39.316Z,41.30
2017-05-25T17:02:08.171Z,41.50
2017-05-25T17:04:36.963Z,42.00
2017-05-25T17:07:05.835Z,41.80
2017-05-25T17:09:34.668Z,42.50
2017-05-25T17:12:03.503Z,42.40
2017-05-25T17:14:32.283Z,42.80
2017-05-25T17:17:01.139Z,43.40
2017-05-25T17:19:29.982Z,43.20
2017-05-25T17:21:58.891Z,43.50
2017-05-25T17:24:27.719Z,44.00
2017-05-25T17:26:56.563Z,44.20
2017-05-25T17:29:25.355Z,45.00
2017-05-25T17:31:54.139Z,44.50
2017-05-25T17:34:23.203Z,44.30
2017-05-25T17:36:52.024Z,44.30
2017-05-25T17:39:20.823Z,44.00
2017-05-25T17:41:49.790Z,44.00
2017-05-25T17:44:19.543Z,44.40
2017-05-25T17:46:48.343Z,43.40
2017-05-25T17:49:17.223Z,43.20
2017-05-25T17:51:46.018Z,43.30
2017-05-25T17:54:14.787Z,43.70
2017-05-25T17:56:43.607Z,43.90
2017-05-25T17:59:12.400Z,43.70
2017-05-25T18:01:41.343Z,43.90
2017-05-25T18:04:11.191Z,44.50
2017-05-25T18:06:39.962Z,45.10
2017-05-25T18:09:08.746Z,46.00
2017-05-25T18:11:37.610Z,47.00
2017-05-25T18:14:07.367Z,45.90
2017-05-25T18:16:36.147Z,45.30
2017-05-25T18:19:04.938Z,45.70
2017-05-25T18:21:33.723Z,46.00
2017-05-25T18:24:04.354Z,46.10
2017-05-25T18:26:33.126Z,46.00
2017-05-25T18:29:01.895Z,46.60
2017-05-25T18:31:30.686Z,47.20
2017-05-25T18:33:59.462Z,47.40
2017-05-25T18:36:28.251Z,47.60
2017-05-25T18:38:57.042Z,47.70
2017-05-25T18:41:26.790Z,48.30
2017-05-25T18:43:55.579Z,48.10
2017-05-25T18:46:24.366Z,48.40
2017-05-25T18:48:53.151Z,48.30
2017-05-25T18:51:21.930Z,49.00
2017-05-25T18:53:50.694Z,49.20
2017-05-25T18:56:19.470Z,51.00
2017-05-25T18:58:48.250Z,52.10
2017-05-25T19:01:17.024Z,52.40
2017-05-25T19:03:45.818Z,52.70
2017-05-25T19:06:14.598Z,52.90
2017-05-25T19:08:43.386Z,52.60
2017-05-25T19:11:12.154Z,50.90
2017-05-25T19:13:40.922Z,51.00
2017-05-25T19:16:10.594Z,51.50
2017-05-25T19:18:39.358Z,52.00
2017-05-25T19:21:08.138Z,54.50
2017-05-25T19:23:36.929Z,56.00
2017-05-25T19:26:05.714Z,57.10
2017-05-25T19:28:34.665Z,57.10
2017-05-25T19:31:03.562Z,57.70
2017-05-25T19:33:33.297Z,58.70
2017-05-25T19:36:02.129Z,59.60
2017-05-25T19:38:31.006Z,59.60
2017-05-25T19:40:59.805Z,60.30
2017-05-25T19:43:29.577Z,59.90
2017-05-25T19:45:58.529Z,59.80
2017-05-25T19:48:27.366Z,60.60
2017-05-25T19:50:56.157Z,60.60
2017-05-25T19:53:24.978Z,61.70
2017-05-25T19:55:54.757Z,62.90
2017-05-25T19:58:25.613Z,64.90
2017-05-25T20:00:54.514Z,65.30
2017-05-25T20:03:24.270Z,65.70
2017-05-25T20:05:53.266Z,65.60
2017-05-25T20:08:22.193Z,65.00
2017-05-25T20:10:50.981Z,64.20
2017-05-25T20:13:19.777Z,65.00
2017-05-25T20:15:48.585Z,65.10
2017-05-25T20:18:19.448Z,65.40
2017-05-25T20:20:48.325Z,65.90
2017-05-25T20:23:17.126Z,66.10
2017-05-25T20:25:45.956Z,66.80
2017-05-25T20:28:14.905Z,67.30
2017-05-25T20:30:43.813Z,67.10
2017-05-25T20:33:12.648Z,66.80
2017-05-25T20:35:41.566Z,66.90
2017-05-25T20:38:10.326Z,66.70
2017-05-25T20:40:39.162Z,66.10
2017-05-25T20:43:08.004Z,66.60
2017-05-25T20:45:36.893Z,66.10
2017-05-25T20:48:05.736Z,63.90
2017-05-25T20:50:34.557Z,63.30
2017-05-25T20:53:05.532Z,63.10
2017-05-25T20:55:34.367Z,62.60
2017-05-25T20:58:03.176Z,64.60
2017-05-25T21:00:32.100Z,65.50
2017-05-25T21:03:00.897Z,66.00
2017-05-25T21:05:29.709Z,65.70
2017-05-25T21:07:58.509Z,62.90
2017-05-25T21:10:27.605Z,62.30
2017-05-25T21:12:56.437Z,61.80
2017-05-25T21:15:25.247Z,61.90
2017-05-25T21:17:54.040Z,61.40
2017-05-25T21:20:22.908Z,61.90
2017-05-25T21:22:51.865Z,61.20
2017-05-25T21:25:21.144Z,62.60
2017-05-25T21:27:49.993Z,62.40
2017-05-25T21:30:18.873Z,63.00
2017-05-25T21:32:47.732Z,63.20
2017-05-25T21:35:18.179Z,63.80
2017-05-25T21:37:47.176Z,64.10
2017-05-25T21:40:17.080Z,64.50
2017-05-25T21:42:46.936Z,64.70
2017-05-25T21:45:15.803Z,66.60
2017-05-25T21:47:44.595Z,66.30
2017-05-25T21:50:13.400Z,67.30
2017-05-25T21:52:42.193Z,68.80
2017-05-25T21:55:10.968Z,70.00
2017-05-25T21:57:39.868Z,70.70
2017-05-25T22:00:08.699Z,72.30
2017-05-25T22:02:39.616Z,72.30
2017-05-25T22:05:09.219Z,72.10
2017-05-25T22:07:41.956Z,71.70
2017-05-25T22:10:12.843Z,71.20
2017-05-25T22:12:44.952Z,70.80
2017-05-25T22:15:13.898Z,70.80
2017-05-25T22:17:42.715Z,70.70
2017-05-25T22:20:12.203Z,71.60
2017-05-25T22:22:43.212Z,72.20
2017-05-25T22:25:12.071Z,72.10
2017-05-25T22:27:40.904Z,71.90
2017-05-25T22:30:09.791Z,72.30
2017-05-25T22:32:37.956Z,72.30
2017-05-25T22:35:06.772Z,73.10
2017-05-25T22:37:35.615Z,73.00
2017-05-25T22:40:05.328Z,71.90
2017-05-25T22:42:34.575Z,71.10
2017-05-25T22:45:06.015Z,71.60
2017-05-25T22:47:35.692Z,73.50
2017-05-25T22:50:06.127Z,75.70
2017-05-25T22:52:35.527Z,76.00
2017-05-25T22:55:04.348Z,75.30
2017-05-25T22:57:33.615Z,75.10
2017-05-25T23:00:04.719Z,75.50
2017-05-25T23:02:35.695Z,74.50
2017-05-25T23:05:05.007Z,73.70
2017-05-25T23:07:34.876Z,73.50
2017-05-25T23:10:05.931Z,72.90
2017-05-25T23:12:35.976Z,72.70
2017-05-25T23:15:04.930Z,73.30
2017-05-25T23:17:34.623Z,73.20
2017-05-25T23:20:03.458Z,73.90
2017-05-25T23:22:32.346Z,76.10
2017-05-25T23:25:01.184Z,76.70
2017-05-25T23:27:30.886Z,76.30
2017-05-25T23:29:59.716Z,76.20
2017-05-25T23:32:28.519Z,75.90
2017-05-25T23:34:57.315Z,75.30
2017-05-25T23:37:26.130Z,75.80
2017-05-25T23:39:54.939Z,76.90
2017-05-25T23:42:24.663Z,77.40
2017-05-25T23:44:53.530Z,76.70
2017-05-25T23:47:22.354Z,77.20
2017-05-25T23:49:51.207Z,76.70
2017-05-25T23:52:21.951Z,76.50
2017-05-25T23:54:50.747Z,75.80
2017-05-25T23:57:19.530Z,75.10
2017-05-25T23:59:48.418Z,75.10
